Time;durP1;ratioP1;P1;durP2;ratioP2;P2;SDS_P1;SDS_P2;PMS_P1;PMS_P2;Temp;Humidity;BMP_temperature;BMP_pressure;BME280_temperature;BME280_humidity;BME280_pressure;Samples;Min_cycle;Max_cycle;Signal;HPM_P1;HPM_P2
2023/08/12 00:00:33;;;;;;;5.80;3.53;;;19.70;1.00;;;;;;5033230;28;20056;-78
2023/08/12 00:02:59;;;;;;;7.93;3.42;;;19.70;1.00;;;;;;5035073;28;20058;-77
2023/08/12 00:05:26;;;;;;;7.47;2.70;;;19.70;1.00;;;;;;5035636;28;20037;-77
2023/08/12 00:07:52;;;;;;;4.95;2.78;;;19.60;1.00;;;;;;5036885;28;20041;-77
2023/08/12 00:10:18;;;;;;;6.05;2.92;;;19.60;1.00;;;;;;5038767;28;20025;-77
2023/08/12 00:12:44;;;;;;;7.78;4.13;;;19.60;1.00;;;;;;5024674;28;20041;-78
2023/08/12 00:15:10;;;;;;;4.85;2.75;;;19.60;1.00;;;;;;5035334;28;20033;-78
2023/08/12 00:17:37;;;;;;;6.13;3.38;;;19.70;1.00;;;;;;5043130;28;20049;-79
2023/08/12 00:20:10;;;;;;;11.02;3.45;;;19.70;1.00;;;;;;5031946;28;20355;-78
2023/08/12 00:22:37;;;;;;;9.15;2.90;;;19.70;1.00;;;;;;5035270;28;20034;-78
2023/08/12 00:25:04;;;;;;;3.67;2.70;;;19.80;1.00;;;;;;5022438;28;20041;-77
2023/08/12 00:27:30;;;;;;;4.63;3.03;;;19.80;1.00;;;;;;5033888;28;20044;-81
2023/08/12 00:29:56;;;;;;;4.05;2.28;;;19.70;1.00;;;;;;5035560;28;20029;-77
2023/08/12 00:32:23;;;;;;;8.70;2.80;;;19.70;1.00;;;;;;5028234;28;20029;-78
2023/08/12 00:34:49;;;;;;;5.03;2.95;;;19.70;1.00;;;;;;5033531;28;20040;-78
2023/08/12 00:37:15;;;;;;;3.92;2.83;;;19.60;1.00;;;;;;5034341;28;20037;-78
2023/08/12 00:39:42;;;;;;;4.85;2.60;;;19.70;1.00;;;;;;5028417;28;20038;-77
2023/08/12 00:42:08;;;;;;;4.82;2.70;;;19.70;1.00;;;;;;5034554;28;20041;-76
2023/08/12 00:44:34;;;;;;;5.40;2.88;;;19.70;1.00;;;;;;5034065;28;20060;-78
2023/08/12 00:47:01;;;;;;;4.82;2.88;;;19.70;1.00;;;;;;5036800;28;20036;-78
2023/08/12 00:49:27;;;;;;;5.85;3.28;;;19.60;1.00;;;;;;5033981;28;20036;-78
2023/08/12 00:51:54;;;;;;;5.35;2.67;;;19.70;1.00;;;;;;5034621;28;20049;-78
2023/08/12 00:54:23;;;;;;;4.93;2.72;;;19.70;1.00;;;;;;5044488;28;20049;-78
2023/08/12 00:56:53;;;;;;;6.00;2.72;;;19.70;1.00;;;;;;5031159;28;20029;-76
2023/08/12 00:59:20;;;;;;;4.45;3.00;;;19.70;1.00;;;;;;5032965;28;20037;-77
2023/08/12 01:01:47;;;;;;;4.70;3.20;;;19.60;1.00;;;;;;5035888;28;20056;-80
2023/08/12 01:04:13;;;;;;;5.60;3.22;;;19.60;1.00;;;;;;5033411;28;20041;-77
2023/08/12 01:06:39;;;;;;;3.88;2.22;;;19.60;1.00;;;;;;5042933;28;20045;-76
2023/08/12 01:09:06;;;;;;;6.45;2.80;;;19.70;1.00;;;;;;5036456;28;20033;-78
2023/08/12 01:11:56;;;;;;;6.50;2.90;;;19.70;1.00;;;;;;5035813;28;20049;-78
2023/08/12 01:14:36;;;;;;;5.22;2.90;;;19.70;1.00;;;;;;5031846;28;20053;-78
2023/08/12 01:19:39;;;;;;;6.00;2.63;;;19.70;1.00;;;;;;5299491;23;21163;-76
2023/08/12 01:22:11;;;;;;;4.78;2.83;;;19.80;1.00;;;;;;5008428;28;20395;-77
2023/08/12 01:24:42;;;;;;;5.47;3.30;;;19.80;1.00;;;;;;5012334;28;20038;-77
2023/08/12 01:27:09;;;;;;;4.95;3.10;;;19.80;1.00;;;;;;4991969;28;20046;-77
2023/08/12 01:29:44;;;;;;;6.53;3.13;;;19.80;1.00;;;;;;4989811;28;20053;-77
2023/08/12 01:32:37;;;;;;;3.40;2.42;;;19.70;1.00;;;;;;4985963;28;20046;-83
2023/08/12 01:35:08;;;;;;;6.60;3.00;;;19.70;1.00;;;;;;5012149;28;20041;-77
2023/08/12 01:37:36;;;;;;;4.13;2.38;;;19.70;1.00;;;;;;4992612;28;20069;-77
2023/08/12 01:40:05;;;;;;;3.47;2.53;;;19.80;1.00;;;;;;4994693;28;20053;-77
2023/08/12 01:42:33;;;;;;;3.95;2.88;;;19.80;1.00;;;;;;5008449;28;20049;-77
2023/08/12 01:45:01;;;;;;;4.95;3.15;;;19.70;1.00;;;;;;5011324;28;20038;-78
2023/08/12 01:47:28;;;;;;;3.25;2.45;;;19.80;1.00;;;;;;5002106;28;20038;-76
2023/08/12 01:49:55;;;;;;;7.10;3.00;;;19.80;1.00;;;;;;5011306;28;20036;-76
2023/08/12 01:52:23;;;;;;;4.03;2.42;;;19.80;1.00;;;;;;5006019;28;20049;-76
2023/08/12 01:54:50;;;;;;;5.20;2.42;;;19.80;1.00;;;;;;5010619;28;20034;-77
2023/08/12 01:57:16;;;;;;;7.25;2.72;;;19.80;1.00;;;;;;5009043;28;20037;-78
2023/08/12 01:59:43;;;;;;;6.45;2.90;;;19.80;1.00;;;;;;5010925;28;20044;-76
2023/08/12 02:02:10;;;;;;;5.55;3.15;;;19.80;1.00;;;;;;5009696;28;20406;-76
2023/08/12 02:04:37;;;;;;;6.93;3.67;;;19.80;1.00;;;;;;5008660;28;20034;-76
2023/08/12 02:07:04;;;;;;;5.82;3.17;;;19.80;1.00;;;;;;4994508;28;20022;-77
2023/08/12 02:09:31;;;;;;;3.22;2.42;;;19.80;1.00;;;;;;5009625;28;20041;-77
2023/08/12 02:11:57;;;;;;;4.20;2.47;;;19.80;1.00;;;;;;5006449;28;20037;-79
2023/08/12 02:14:23;;;;;;;4.28;3.33;;;19.90;1.00;;;;;;5003697;28;20026;-77
2023/08/12 02:16:50;;;;;;;5.15;2.50;;;19.90;1.00;;;;;;4990116;28;20506;-77
2023/08/12 02:19:16;;;;;;;5.38;2.72;;;19.90;1.00;;;;;;5012027;28;20382;-77
2023/08/12 02:21:42;;;;;;;5.00;2.63;;;19.90;1.00;;;;;;4987801;28;20054;-77
2023/08/12 02:24:09;;;;;;;5.82;2.97;;;19.90;1.00;;;;;;5011010;28;20030;-77
2023/08/12 02:26:37;;;;;;;5.15;2.63;;;19.90;1.00;;;;;;5009562;28;20387;-77
2023/08/12 02:29:04;;;;;;;7.18;3.67;;;19.90;1.00;;;;;;5007248;28;20366;-77
2023/08/12 02:31:30;;;;;;;5.53;2.90;;;20.00;1.00;;;;;;4993715;28;20044;-76
2023/08/12 02:33:56;;;;;;;5.32;3.35;;;20.00;1.00;;;;;;4991572;28;20061;-77
2023/08/12 02:36:25;;;;;;;6.20;3.25;;;19.90;1.00;;;;;;4977885;28;20048;-77
2023/08/12 02:38:51;;;;;;;6.50;3.10;;;19.90;1.00;;;;;;5003388;28;20046;-76
2023/08/12 02:41:17;;;;;;;6.40;2.55;;;19.90;1.00;;;;;;4993956;28;20038;-77
2023/08/12 02:43:44;;;;;;;4.93;3.03;;;19.90;1.00;;;;;;4994158;28;20041;-77
2023/08/12 02:46:10;;;;;;;7.55;3.35;;;20.00;1.00;;;;;;5009326;28;20355;-77
2023/08/12 02:48:36;;;;;;;9.02;4.22;;;19.90;1.00;;;;;;4992676;28;20052;-77
2023/08/12 02:51:02;;;;;;;5.03;3.33;;;19.80;1.00;;;;;;5010836;28;20109;-77
2023/08/12 02:53:28;;;;;;;10.07;4.03;;;20.00;1.00;;;;;;5009393;28;20022;-78
2023/08/12 02:55:54;;;;;;;6.93;3.70;;;20.20;1.00;;;;;;5003270;28;20072;-76
2023/08/12 02:58:20;;;;;;;7.78;3.60;;;20.40;1.00;;;;;;5000923;28;20458;-77
2023/08/12 03:00:47;;;;;;;4.85;3.33;;;20.40;1.00;;;;;;5007518;28;20030;-77
2023/08/12 03:03:13;;;;;;;4.95;3.50;;;20.50;1.00;;;;;;4991920;28;20417;-77
2023/08/12 03:05:40;;;;;;;5.88;3.60;;;20.50;1.00;;;;;;4993355;28;20045;-79
2023/08/12 03:08:06;;;;;;;12.25;4.47;;;20.50;1.00;;;;;;4992539;28;20046;-77
2023/08/12 03:10:37;;;;;;;5.00;3.28;;;20.40;1.00;;;;;;4990099;28;20050;-78
2023/08/12 03:13:03;;;;;;;6.55;4.00;;;20.40;1.00;;;;;;4992264;28;20049;-77
2023/08/12 03:15:29;;;;;;;4.80;3.20;;;20.30;1.00;;;;;;4996528;28;20041;-77
2023/08/12 03:17:57;;;;;;;7.32;4.03;;;20.30;1.00;;;;;;4997341;28;20038;-76
2023/08/12 03:20:23;;;;;;;9.68;4.45;;;20.30;1.00;;;;;;4992337;28;20056;-77
2023/08/12 03:22:50;;;;;;;7.03;3.28;;;20.30;1.00;;;;;;4990546;28;20046;-77
2023/08/12 03:25:17;;;;;;;7.43;3.33;;;20.20;1.00;;;;;;5008244;28;20046;-77
2023/08/12 03:27:45;;;;;;;5.38;3.53;;;20.20;1.00;;;;;;4991767;28;20054;-77
2023/08/12 03:30:11;;;;;;;6.05;3.20;;;20.10;1.00;;;;;;5013166;28;20034;-77
2023/08/12 03:32:38;;;;;;;9.88;3.78;;;20.10;1.00;;;;;;4995759;28;20052;-77
2023/08/12 03:35:05;;;;;;;5.07;3.60;;;19.90;1.00;;;;;;5010496;28;20046;-77
2023/08/12 03:37:31;;;;;;;7.05;3.42;;;19.90;1.00;;;;;;4994712;28;20038;-77
2023/08/12 03:39:57;;;;;;;6.05;3.28;;;19.90;1.00;;;;;;4995024;28;20037;-76
2023/08/12 03:42:23;;;;;;;5.18;4.05;;;19.90;1.00;;;;;;4981014;28;20038;-77
2023/08/12 03:44:50;;;;;;;6.25;3.95;;;19.90;1.00;;;;;;4994817;28;20045;-77
2023/08/12 03:47:21;;;;;;;4.30;3.05;;;19.90;1.00;;;;;;5009348;28;20487;-77
2023/08/12 03:49:48;;;;;;;5.28;3.67;;;19.90;1.00;;;;;;4994804;28;20509;-77
2023/08/12 03:52:14;;;;;;;6.20;3.33;;;19.90;1.00;;;;;;4996480;28;20386;-77
2023/08/12 03:54:41;;;;;;;7.35;4.15;;;19.90;1.00;;;;;;4990978;28;20049;-77
2023/08/12 03:57:07;;;;;;;7.82;3.45;;;19.80;1.00;;;;;;4990629;28;20054;-77
2023/08/12 03:59:33;;;;;;;6.53;4.10;;;19.80;1.00;;;;;;5007926;28;20513;-77
2023/08/12 04:02:00;;;;;;;6.57;3.78;;;19.80;1.00;;;;;;5013677;28;20048;-76
2023/08/12 04:04:27;;;;;;;5.57;3.25;;;19.80;1.00;;;;;;4995228;28;20034;-77
2023/08/12 04:06:53;;;;;;;6.88;3.47;;;19.80;1.00;;;;;;5012809;28;20044;-77
2023/08/12 04:09:19;;;;;;;5.50;3.42;;;19.80;1.00;;;;;;5013768;28;20038;-78
2023/08/12 04:11:46;;;;;;;4.78;3.47;;;19.80;1.00;;;;;;5011054;28;20386;-88
2023/08/12 04:14:13;;;;;;;7.20;3.50;;;19.80;1.00;;;;;;5009708;28;20034;-79
2023/08/12 04:16:42;;;;;;;7.53;4.05;;;19.80;1.00;;;;;;5011026;28;20523;-79
2023/08/12 04:19:08;;;;;;;6.88;4.07;;;19.80;1.00;;;;;;4993083;28;20030;-77
2023/08/12 04:21:34;;;;;;;4.63;3.40;;;19.80;1.00;;;;;;4983190;28;20053;-77
2023/08/12 04:24:01;;;;;;;6.90;3.58;;;19.80;1.00;;;;;;4972291;28;20156;-77
2023/08/12 04:26:27;;;;;;;5.53;3.35;;;19.90;1.00;;;;;;4973652;28;20047;-77
2023/08/12 04:28:54;;;;;;;6.97;4.97;;;19.90;1.00;;;;;;4969223;28;20365;-77
2023/08/12 04:31:20;;;;;;;4.78;3.88;;;19.90;1.00;;;;;;4971376;28;20039;-78
2023/08/12 04:33:49;;;;;;;6.57;3.80;;;19.90;1.00;;;;;;4971074;28;20046;-78
2023/08/12 04:36:16;;;;;;;5.72;3.58;;;19.90;1.00;;;;;;4970184;28;20059;-78
2023/08/12 04:38:42;;;;;;;6.75;3.72;;;19.90;1.00;;;;;;4972797;28;20054;-78
2023/08/12 04:41:11;;;;;;;3.72;2.95;;;19.90;1.00;;;;;;4969531;28;20038;-79
2023/08/12 04:43:38;;;;;;;4.43;2.92;;;20.00;1.00;;;;;;4970735;28;20498;-78
2023/08/12 04:46:04;;;;;;;5.78;3.17;;;19.90;1.00;;;;;;4967866;28;20039;-78
2023/08/12 04:48:31;;;;;;;4.95;3.63;;;19.90;1.00;;;;;;4962949;28;20050;-78
2023/08/12 04:51:01;;;;;;;5.43;3.17;;;19.90;1.00;;;;;;4970497;28;20047;-79
2023/08/12 04:53:28;;;;;;;6.07;3.65;;;19.90;1.00;;;;;;4972578;28;20065;-78
2023/08/12 04:55:55;;;;;;;12.50;3.85;;;19.90;1.00;;;;;;4971138;28;20053;-80
2023/08/12 04:58:22;;;;;;;7.88;4.57;;;19.90;1.00;;;;;;4972491;28;20031;-80
2023/08/12 05:00:49;;;;;;;7.75;4.50;;;19.90;1.00;;;;;;4969579;28;20051;-78
2023/08/12 05:03:16;;;;;;;6.00;3.80;;;19.90;1.00;;;;;;4966567;28;20047;-78
2023/08/12 05:05:50;;;;;;;5.28;4.13;;;19.90;1.00;;;;;;4971955;28;20051;-79
2023/08/12 05:08:17;;;;;;;5.85;3.60;;;20.00;1.00;;;;;;4968915;28;20043;-79
2023/08/12 05:10:46;;;;;;;4.80;3.60;;;19.90;1.00;;;;;;4967092;28;20403;-78
2023/08/12 05:13:12;;;;;;;5.68;3.08;;;19.90;1.00;;;;;;4971098;28;20039;-79
2023/08/12 05:15:39;;;;;;;4.50;2.95;;;19.90;1.00;;;;;;4987809;28;20050;-80
2023/08/12 05:18:06;;;;;;;7.15;3.42;;;20.00;1.00;;;;;;4967382;28;20054;-78
2023/08/12 05:20:32;;;;;;;7.07;3.83;;;20.00;1.00;;;;;;4970619;28;20058;-78
2023/08/12 05:22:58;;;;;;;4.40;3.30;;;20.00;1.00;;;;;;4987700;28;20051;-78
2023/08/12 05:25:25;;;;;;;4.97;3.53;;;20.00;1.00;;;;;;4990924;28;20131;-79
2023/08/12 05:27:51;;;;;;;6.15;4.15;;;20.10;1.00;;;;;;4987831;28;20026;-78
2023/08/12 05:30:17;;;;;;;5.90;3.50;;;20.10;1.00;;;;;;4988399;28;20039;-79
2023/08/12 05:32:43;;;;;;;7.50;4.35;;;20.30;1.00;;;;;;4990105;28;20061;-79
2023/08/12 05:35:09;;;;;;;6.25;3.40;;;20.70;1.00;;;;;;4986035;28;20023;-79
2023/08/12 05:37:35;;;;;;;4.78;3.78;;;21.20;1.00;;;;;;4990906;28;20050;-79
2023/08/12 05:40:04;;;;;;;7.10;4.20;;;21.50;99.90;;;;;;4989211;28;20023;-78
2023/08/12 05:42:30;;;;;;;4.88;3.28;;;21.70;99.90;;;;;;4994682;28;20045;-78
2023/08/12 05:44:56;;;;;;;5.00;3.25;;;21.90;99.90;;;;;;4990382;28;20046;-78
2023/08/12 05:47:22;;;;;;;4.30;3.13;;;22.30;99.90;;;;;;4991925;28;20046;-79
2023/08/12 05:49:49;;;;;;;5.78;3.88;;;22.70;99.90;;;;;;4989754;28;20034;-85
2023/08/12 05:52:15;;;;;;;4.70;3.90;;;22.70;99.90;;;;;;4990616;28;20034;-80
2023/08/12 05:54:41;;;;;;;5.93;4.18;;;22.60;99.90;;;;;;4991417;28;20041;-79
2023/08/12 05:57:07;;;;;;;7.18;3.67;;;22.30;99.90;;;;;;4988536;28;20054;-80
2023/08/12 05:59:33;;;;;;;5.15;3.40;;;22.30;99.90;;;;;;4990003;28;20046;-78
2023/08/12 06:01:59;;;;;;;5.65;3.58;;;22.40;99.90;;;;;;4986109;28;20038;-78
2023/08/12 06:04:25;;;;;;;4.60;3.53;;;22.40;99.90;;;;;;4988671;28;20050;-78
2023/08/12 06:06:52;;;;;;;5.53;3.80;;;22.80;99.90;;;;;;4988197;28;20045;-79
2023/08/12 06:09:21;;;;;;;6.35;3.95;;;23.10;99.90;;;;;;4991582;28;20053;-78
2023/08/12 06:11:47;;;;;;;3.90;3.15;;;23.20;99.90;;;;;;4989675;28;20030;-79
2023/08/12 06:14:13;;;;;;;5.20;4.10;;;23.30;99.90;;;;;;4988346;28;20050;-79
2023/08/12 06:16:39;;;;;;;5.38;3.42;;;24.10;48.60;;;;;;4990885;28;20479;-78
2023/08/12 06:19:05;;;;;;;5.55;3.47;;;24.30;6.30;;;;;;4989037;28;20035;-79
2023/08/12 06:21:32;;;;;;;5.97;3.10;;;24.20;19.50;;;;;;5002678;28;20442;-80
2023/08/12 06:23:58;;;;;;;5.85;3.95;;;24.00;41.30;;;;;;5006026;28;20042;-79
2023/08/12 06:26:24;;;;;;;3.72;3.25;;;24.10;47.90;;;;;;5007691;28;20037;-80
2023/08/12 06:28:50;;;;;;;5.53;3.63;;;24.10;33.30;;;;;;5010756;28;20037;-84
2023/08/12 06:31:16;;;;;;;4.82;3.67;;;23.40;73.20;;;;;;5008077;28;20033;-78
2023/08/12 06:33:43;;;;;;;4.90;3.92;;;23.20;95.90;;;;;;4993802;28;20037;-78
2023/08/12 06:36:09;;;;;;;5.50;3.63;;;23.00;99.90;;;;;;5008325;28;20410;-78
2023/08/12 06:38:35;;;;;;;5.45;3.50;;;23.10;99.90;;;;;;5006605;28;20097;-78
2023/08/12 06:41:01;;;;;;;8.95;4.18;;;23.20;99.90;;;;;;5011096;28;20037;-80
2023/08/12 06:43:27;;;;;;;4.57;3.40;;;23.10;99.90;;;;;;5009031;28;20045;-78
2023/08/12 06:45:54;;;;;;;5.38;3.88;;;23.00;99.90;;;;;;5009280;28;20038;-77
2023/08/12 06:48:20;;;;;;;7.15;3.80;;;23.00;99.90;;;;;;5007264;28;20026;-78
2023/08/12 06:50:52;;;;;;;6.25;3.85;;;23.00;99.90;;;;;;5006501;28;20045;-76
2023/08/12 06:53:18;;;;;;;7.03;4.05;;;23.10;99.90;;;;;;5006286;28;20459;-77
2023/08/12 06:55:45;;;;;;;4.57;3.47;;;23.30;99.90;;;;;;5009551;28;20037;-77
2023/08/12 06:58:17;;;;;;;5.60;3.40;;;23.60;99.90;;;;;;5008407;28;20050;-77
2023/08/12 07:00:43;;;;;;;4.88;4.20;;;23.80;64.00;;;;;;5012876;28;20047;-76
2023/08/12 07:03:09;;;;;;;4.53;3.38;;;24.00;44.80;;;;;;4996961;28;20195;-78
2023/08/12 07:05:36;;;;;;;4.28;3.58;;;24.10;24.30;;;;;;5016059;28;20201;-77
2023/08/12 07:08:02;;;;;;;9.27;3.88;;;24.10;25.60;;;;;;5011389;28;20045;-78
2023/08/12 07:10:28;;;;;;;8.93;3.78;;;23.80;23.50;;;;;;5014777;28;20045;-77
2023/08/12 07:12:57;;;;;;;5.95;3.92;;;23.80;47.10;;;;;;4980553;28;20044;-77
2023/08/12 07:15:23;;;;;;;5.18;3.70;;;23.80;35.30;;;;;;5016254;28;20037;-77
2023/08/12 07:17:49;;;;;;;5.30;3.38;;;23.90;42.00;;;;;;5011527;28;20042;-76
2023/08/12 07:20:15;;;;;;;5.30;3.60;;;23.90;95.90;;;;;;5015574;28;20335;-79
2023/08/12 07:22:41;;;;;;;5.40;3.78;;;23.90;90.40;;;;;;5012236;28;20080;-78
2023/08/12 07:25:08;;;;;;;4.40;3.75;;;23.90;93.80;;;;;;5010955;28;20065;-77
2023/08/12 07:27:34;;;;;;;6.70;3.53;;;23.90;76.70;;;;;;4996420;28;20038;-77
2023/08/12 07:30:00;;;;;;;5.43;3.90;;;23.90;57.50;;;;;;5014710;28;20513;-77
2023/08/12 07:32:27;;;;;;;7.35;4.05;;;23.90;64.10;;;;;;5006509;28;20486;-77
2023/08/12 07:34:53;;;;;;;6.47;4.07;;;24.00;98.40;;;;;;5012886;28;20041;-77
2023/08/12 07:37:19;;;;;;;4.72;3.58;;;24.00;99.90;;;;;;5010949;28;20041;-77
2023/08/12 07:39:45;;;;;;;7.80;4.38;;;24.20;99.90;;;;;;5012342;28;20034;-78
2023/08/12 07:42:12;;;;;;;5.57;3.78;;;24.20;72.80;;;;;;5012970;28;20033;-77
2023/08/12 07:44:38;;;;;;;4.78;3.70;;;24.30;98.10;;;;;;5010045;28;20037;-77
2023/08/12 07:47:04;;;;;;;5.95;3.90;;;24.40;54.00;;;;;;5009943;28;20061;-79
2023/08/12 07:49:30;;;;;;;5.78;3.20;;;24.40;57.70;;;;;;5015105;28;20030;-75
2023/08/12 07:51:56;;;;;;;5.90;3.40;;;24.50;76.70;;;;;;5012084;28;20045;-76
2023/08/12 07:54:22;;;;;;;7.35;3.65;;;24.70;57.70;;;;;;5013282;28;20029;-76
2023/08/12 07:56:49;;;;;;;6.47;4.65;;;25.10;6.20;;;;;;5011386;28;20042;-75
2023/08/12 07:59:16;;;;;;;5.15;3.53;;;25.90;1.00;;;;;;5014749;28;20045;-75
2023/08/12 08:01:42;;;;;;;6.70;3.72;;;26.30;1.00;;;;;;5012195;28;20030;-77
2023/08/12 08:04:08;;;;;;;4.93;3.72;;;26.10;1.00;;;;;;5007858;28;20030;-75
2023/08/12 08:06:34;;;;;;;5.10;3.47;;;26.20;1.00;;;;;;5014626;28;20037;-76
2023/08/12 08:09:03;;;;;;;5.32;3.88;;;26.30;1.00;;;;;;5013801;28;20477;-76
2023/08/12 08:11:30;;;;;;;5.07;3.70;;;26.50;1.00;;;;;;5010521;28;20481;-76
2023/08/12 08:13:58;;;;;;;5.93;3.15;;;27.10;1.00;;;;;;4991164;28;20046;-77
2023/08/12 08:16:24;;;;;;;4.18;3.50;;;27.50;1.00;;;;;;5010864;28;20052;-78
2023/08/12 08:18:50;;;;;;;6.40;4.10;;;27.40;1.00;;;;;;5013848;28;20050;-79
2023/08/12 08:21:16;;;;;;;5.80;3.45;;;27.20;1.00;;;;;;5009643;28;20053;-78
2023/08/12 08:23:42;;;;;;;3.95;2.85;;;26.60;1.00;;;;;;5010044;28;20030;-79
2023/08/12 08:26:10;;;;;;;5.05;2.88;;;26.70;1.00;;;;;;4996177;28;20029;-76
2023/08/12 08:28:38;;;;;;;3.47;2.50;;;27.50;1.00;;;;;;5012120;28;20045;-79
2023/08/12 08:31:04;;;;;;;6.32;3.55;;;27.70;1.00;;;;;;5012777;28;20048;-77
2023/08/12 08:33:30;;;;;;;5.95;4.25;;;27.60;1.00;;;;;;4994679;28;20030;-77
2023/08/12 08:35:56;;;;;;;9.05;4.97;;;27.10;1.00;;;;;;5012453;28;20033;-85
2023/08/12 08:38:22;;;;;;;7.88;4.15;;;26.80;1.00;;;;;;5010330;28;20034;-78
2023/08/12 08:40:50;;;;;;;8.32;5.25;;;26.80;1.00;;;;;;5011727;28;20379;-78
2023/08/12 08:43:24;;;;;;;10.65;6.05;;;26.70;1.00;;;;;;5006880;28;20054;-77
2023/08/12 08:45:54;;;;;;;10.10;4.97;;;26.80;1.00;;;;;;5012902;28;20034;-79
2023/08/12 08:48:21;;;;;;;9.02;5.15;;;27.30;1.00;;;;;;4999266;28;20382;-79
2023/08/12 08:50:48;;;;;;;13.20;6.78;;;28.20;1.00;;;;;;5012959;28;20406;-80
2023/08/12 08:53:16;;;;;;;11.27;6.85;;;28.90;1.00;;;;;;5010752;28;20398;-78
2023/08/12 08:55:42;;;;;;;12.50;7.43;;;29.60;99.90;;;;;;5010304;28;20037;-79
2023/08/12 08:58:09;;;;;;;8.65;5.47;;;28.20;99.90;;;;;;5012046;28;20038;-78
2023/08/12 09:00:36;;;;;;;7.20;4.03;;;28.10;1.00;;;;;;5010935;28;20034;-81
2023/08/12 09:03:04;;;;;;;6.30;4.95;;;29.00;99.90;;;;;;5011120;28;20458;-78
2023/08/12 09:05:32;;;;;;;11.68;5.10;;;29.10;99.90;;;;;;5008564;28;20045;-78
2023/08/12 09:07:59;;;;;;;11.27;5.05;;;28.70;99.90;;;;;;4995400;28;20477;-90
2023/08/12 09:10:27;;;;;;;7.38;4.85;;;28.10;1.00;;;;;;4993005;28;20046;-79
2023/08/12 09:12:55;;;;;;;7.13;4.28;;;28.20;99.90;;;;;;5012718;28;20052;-78
2023/08/12 09:15:21;;;;;;;9.10;4.90;;;28.70;99.90;;;;;;5012609;28;20049;-77
2023/08/12 09:17:47;;;;;;;10.23;5.22;;;28.00;99.90;;;;;;5013187;28;20034;-77
2023/08/12 09:20:14;;;;;;;9.32;5.00;;;27.40;1.00;;;;;;5010551;28;20038;-77
2023/08/12 09:22:41;;;;;;;7.05;4.63;;;27.30;1.00;;;;;;5004899;28;20045;-77
2023/08/12 09:25:09;;;;;;;7.75;4.95;;;27.10;1.00;;;;;;5006958;28;20034;-78
2023/08/12 09:27:37;;;;;;;7.05;5.45;;;27.00;1.00;;;;;;5008536;28;20481;-78
2023/08/12 09:30:04;;;;;;;5.25;4.15;;;26.70;1.00;;;;;;5005428;28;20035;-77
2023/08/12 09:32:31;;;;;;;4.40;3.30;;;27.10;1.00;;;;;;5006651;28;20052;-78
2023/08/12 09:34:57;;;;;;;7.88;4.20;;;27.20;1.00;;;;;;5012517;28;20034;-78
2023/08/12 09:37:24;;;;;;;5.57;4.03;;;27.70;1.00;;;;;;5013060;28;20060;-78
2023/08/12 09:39:51;;;;;;;11.77;3.92;;;28.00;1.00;;;;;;5013055;28;20044;-78
2023/08/12 09:42:18;;;;;;;6.55;4.13;;;27.90;1.00;;;;;;5010558;28;20034;-77
2023/08/12 09:44:45;;;;;;;7.53;4.80;;;28.00;1.00;;;;;;5006534;28;20026;-77
2023/08/12 09:47:11;;;;;;;8.63;4.57;;;27.90;1.00;;;;;;5012360;28;20038;-77
2023/08/12 09:49:39;;;;;;;5.93;4.53;;;27.90;1.00;;;;;;5012499;28;20048;-78
2023/08/12 09:52:06;;;;;;;6.95;4.40;;;28.00;99.90;;;;;;5010915;28;20041;-77
2023/08/12 09:54:34;;;;;;;5.57;3.47;;;27.90;99.90;;;;;;5012763;28;20030;-77
2023/08/12 09:57:02;;;;;;;7.03;3.40;;;28.20;99.90;;;;;;5013150;28;20042;-85
2023/08/12 09:59:32;;;;;;;5.28;3.33;;;28.30;99.90;;;;;;5008760;28;20043;-78
2023/08/12 10:01:59;;;;;;;4.88;3.38;;;28.00;99.90;;;;;;5008429;28;20038;-77
2023/08/12 10:04:29;;;;;;;4.80;3.33;;;28.00;1.00;;;;;;4992944;28;20056;-78
2023/08/12 10:06:56;;;;;;;5.93;3.97;;;28.00;99.90;;;;;;5009348;28;20057;-78
2023/08/12 10:09:23;;;;;;;4.60;3.38;;;28.40;99.90;;;;;;5009164;28;20030;-77
2023/08/12 10:11:50;;;;;;;4.97;3.40;;;28.70;99.90;;;;;;5009651;28;20026;-78
2023/08/12 10:14:17;;;;;;;4.40;3.55;;;28.80;99.90;;;;;;5004000;28;20041;-77
2023/08/12 10:16:47;;;;;;;6.60;4.10;;;28.50;99.90;;;;;;5011863;28;20037;-77
2023/08/12 10:19:16;;;;;;;4.90;3.28;;;27.80;99.90;;;;;;5008145;28;20043;-78
2023/08/12 10:21:43;;;;;;;;;;;27.40;1.00;;;;;;5008225;28;20270;-78
2023/08/12 10:24:11;;;;;;;4.88;3.85;;;27.50;1.00;;;;;;5011181;28;20270;-78
2023/08/12 10:26:38;;;;;;;5.32;3.50;;;27.60;1.00;;;;;;5012182;28;20034;-79
2023/08/12 10:29:05;;;;;;;6.13;4.32;;;27.60;1.00;;;;;;4993668;28;20387;-80
2023/08/12 10:31:32;;;;;;;10.05;5.22;;;27.60;1.00;;;;;;5007474;28;20033;-79
2023/08/12 10:33:58;;;;;;;9.68;5.75;;;27.20;1.00;;;;;;5009736;28;20033;-77
2023/08/12 10:36:27;;;;;;;4.60;4.03;;;27.20;1.00;;;;;;5008850;28;20100;-78
2023/08/12 10:38:53;;;;;;;9.87;3.97;;;27.20;1.00;;;;;;5000059;28;20054;-76
2023/08/12 10:41:25;;;;;;;6.00;4.30;;;26.90;1.00;;;;;;5010205;28;20034;-78
2023/08/12 10:43:56;;;;;;;6.53;3.83;;;26.60;1.00;;;;;;5010686;28;20053;-78
2023/08/12 10:46:34;;;;;;;6.50;3.45;;;26.50;1.00;;;;;;5005660;28;20624;-78
2023/08/12 10:49:06;;;;;;;6.15;3.65;;;26.40;1.00;;;;;;5006966;28;20057;-77
2023/08/12 10:51:46;;;;;;;6.63;4.00;;;26.50;1.00;;;;;;5007493;28;20042;-78
2023/08/12 10:54:26;;;;;;;5.40;3.17;;;26.40;1.00;;;;;;5008899;28;20037;-79
2023/08/12 10:57:02;;;;;;;6.85;3.53;;;26.30;1.00;;;;;;5004423;28;20043;-78
2023/08/12 10:59:50;;;;;;;5.43;3.30;;;26.10;1.00;;;;;;5008530;28;20030;-79
2023/08/12 11:02:17;;;;;;;5.15;3.30;;;25.90;1.00;;;;;;5006352;28;20034;-80
2023/08/12 11:04:44;;;;;;;5.20;3.55;;;25.70;1.00;;;;;;5009569;28;20048;-77
2023/08/12 11:07:19;;;;;;;5.28;3.47;;;25.70;1.00;;;;;;4991650;28;20033;-77
2023/08/12 11:09:52;;;;;;;4.43;3.00;;;25.60;1.00;;;;;;5010062;28;20037;-78
2023/08/12 11:12:27;;;;;;;3.78;2.85;;;25.30;55.00;;;;;;5009091;28;20033;-77
2023/08/12 11:14:59;;;;;;;5.75;3.20;;;24.40;99.90;;;;;;5007765;28;20430;-80
2023/08/12 11:17:39;;;;;;;6.95;4.15;;;23.60;99.90;;;;;;5007688;28;20041;-78
2023/08/12 11:20:07;;;;;;;;;;;22.90;1.00;;;;;;5006149;28;20042;-87
2023/08/12 11:22:37;;;;;;;6.00;2.47;;;21.60;99.90;;;;;;4987140;28;19928;-78
2023/08/12 11:25:08;;;;;;;5.18;2.88;;;20.70;99.90;;;;;;5010042;28;20045;-82
2023/08/12 11:27:42;;;;;;;6.68;3.72;;;20.40;99.90;;;;;;5008294;28;20042;-81
2023/08/12 11:30:11;;;;;;;8.48;5.22;;;20.20;99.90;;;;;;4988918;28;20415;-78
2023/08/12 11:32:39;;;;;;;9.32;5.05;;;20.30;99.90;;;;;;4990373;28;20037;-81
2023/08/12 11:35:07;;;;;;;11.35;5.57;;;20.30;99.90;;;;;;5008345;28;20045;-79
2023/08/12 11:37:35;;;;;;;5.57;4.10;;;20.40;99.90;;;;;;4994209;28;20487;-77
2023/08/12 11:40:03;;;;;;;6.95;4.15;;;20.40;99.90;;;;;;5006145;28;20041;-77
2023/08/12 11:42:31;;;;;;;7.45;4.22;;;20.30;99.90;;;;;;4987350;28;20056;-77
2023/08/12 11:44:57;;;;;;;10.93;4.65;;;20.20;99.90;;;;;;5007567;28;20046;-77
2023/08/12 11:47:24;;;;;;;8.02;4.57;;;20.10;99.90;;;;;;5013030;28;20453;-77
2023/08/12 11:49:51;;;;;;;7.45;3.90;;;20.00;99.90;;;;;;5010441;28;20051;-78
2023/08/12 11:52:18;;;;;;;10.43;3.97;;;20.00;99.90;;;;;;5010701;28;20038;-77
2023/08/12 11:54:44;;;;;;;10.18;4.75;;;20.00;99.90;;;;;;5011156;28;20042;-77
2023/08/12 11:57:10;;;;;;;9.90;5.28;;;19.90;99.90;;;;;;5008431;28;20121;-80
2023/08/12 11:59:37;;;;;;;7.90;4.63;;;19.90;99.90;;;;;;5011359;28;20037;-77
2023/08/12 12:02:04;;;;;;;9.98;5.68;;;19.90;99.90;;;;;;5009873;28;20029;-77
2023/08/12 12:04:31;;;;;;;11.70;6.20;;;20.00;99.90;;;;;;5010711;28;20029;-77
2023/08/12 12:06:59;;;;;;;14.45;7.93;;;20.10;99.90;;;;;;5012840;28;20037;-77
2023/08/12 12:09:26;;;;;;;16.92;7.70;;;20.30;99.90;;;;;;5011538;28;20050;-78
2023/08/12 12:11:53;;;;;;;13.75;6.32;;;20.20;99.90;;;;;;5009331;28;20041;-78
2023/08/12 12:14:21;;;;;;;7.70;5.13;;;20.30;99.90;;;;;;5011079;28;20029;-76
2023/08/12 12:16:48;;;;;;;17.98;7.50;;;20.30;99.90;;;;;;5012022;28;20030;-77
2023/08/12 12:19:21;;;;;;;12.90;5.80;;;20.40;99.90;;;;;;5012293;28;20048;-77
2023/08/12 12:21:52;;;;;;;5.10;3.88;;;20.40;99.90;;;;;;5009498;28;20050;-78
2023/08/12 12:24:19;;;;;;;7.63;4.72;;;20.30;99.90;;;;;;5009690;28;20034;-78
2023/08/12 12:26:46;;;;;;;8.82;4.78;;;20.30;99.90;;;;;;5010647;28;20033;-76
2023/08/12 12:29:13;;;;;;;8.10;4.80;;;20.50;99.90;;;;;;5010251;28;20261;-76
2023/08/12 12:31:41;;;;;;;9.25;4.90;;;20.60;99.90;;;;;;5011151;28;20040;-78
2023/08/12 12:34:09;;;;;;;7.18;4.32;;;20.90;99.90;;;;;;5012060;28;20048;-78
2023/08/12 12:36:37;;;;;;;7.22;4.30;;;20.90;99.90;;;;;;5012532;28;20370;-79
2023/08/12 12:39:05;;;;;;;5.13;3.28;;;20.90;99.90;;;;;;5010025;28;20046;-77
2023/08/12 12:41:32;;;;;;;7.18;3.15;;;20.90;99.90;;;;;;4991746;28;20046;-79
2023/08/12 12:44:02;;;;;;;6.88;3.38;;;21.00;99.90;;;;;;5010086;28;20033;-80
2023/08/12 12:46:29;;;;;;;7.30;3.33;;;21.00;99.90;;;;;;5010895;28;20030;-79
2023/08/12 12:48:55;;;;;;;6.18;2.92;;;20.90;99.90;;;;;;5011656;28;20042;-80
2023/08/12 12:51:21;;;;;;;5.47;3.35;;;20.60;99.90;;;;;;5010751;28;20030;-79
2023/08/12 12:53:48;;;;;;;8.85;4.05;;;20.60;99.90;;;;;;5010672;28;20486;-80
2023/08/12 12:56:14;;;;;;;6.10;3.97;;;20.80;99.90;;;;;;5011590;28;20053;-80